Time;durP1;ratioP1;P1;durP2;ratioP2;P2;SDS_P1;SDS_P2;PMS_P1;PMS_P2;Temp;Humidity;BMP_temperature;BMP_pressure;BME280_temperature;BME280_humidity;BME280_pressure;Samples;Min_cycle;Max_cycle;Signal;HPM_P1;HPM_P2
2021/03/10 09:14:38;;;;;;;;;21.40;18.20;;;;;;;;1540960;27;945719;-88
2021/03/10 09:15:25;;;;;;;;;26.75;26.00;;;;;;;;1560883;28;84734;-89
2021/03/10 09:16:10;;;;;;;;;24.60;24.60;;;;;;;;1554779;28;83550;-88
2021/03/10 09:16:57;;;;;;;;;28.50;28.50;;;;;;;;1554117;28;85190;-88
2021/03/10 09:17:45;;;;;;;;;26.80;25.80;;;;;;;;1551095;28;83636;-91
2021/03/10 09:18:34;;;;;;;;;20.20;20.20;;;;;;;;1551495;28;85116;-89
2021/03/10 09:19:29;;;;;;;;;28.40;28.40;;;;;;;;1544832;28;83699;-92
2021/03/10 09:20:20;;;;;;;;;26.40;26.40;;;;;;;;1544769;28;85941;-90
2021/03/10 09:21:06;;;;;;;;;22.20;21.80;;;;;;;;1544858;28;85943;-88
2021/03/10 09:21:51;;;;;;;;;24.00;22.00;;;;;;;;1543356;28;85945;-87
2021/03/10 09:22:46;;;;;;;;;27.00;25.25;;;;;;;;1547641;28;85039;-89
2021/03/10 09:23:32;;;;;;;;;21.80;21.60;;;;;;;;1554239;28;86721;-90
2021/03/10 09:24:19;;;;;;;;;21.40;19.80;;;;;;;;1555150;28;86272;-91
2021/03/10 09:25:11;;;;;;;;;17.20;17.20;;;;;;;;1549796;28;84546;-87
2021/03/10 09:25:56;;;;;;;;;23.00;23.00;;;;;;;;1550063;28;86346;-88
2021/03/10 09:26:41;;;;;;;;;22.00;20.00;;;;;;;;1549603;28;85209;-87
2021/03/10 09:27:28;;;;;;;;;24.75;23.50;;;;;;;;1548763;28;85114;-87
2021/03/10 09:28:14;;;;;;;;;22.40;22.40;;;;;;;;1555050;28;83911;-89
2021/03/10 09:29:00;;;;;;;;;19.60;19.60;;;;;;;;1553088;28;85008;-87
2021/03/10 09:29:45;;;;;;;;;24.25;21.75;;;;;;;;1548962;28;86101;-87
2021/03/10 09:30:31;;;;;;;;;23.00;23.00;;;;;;;;1555215;28;85641;-88
2021/03/10 09:31:17;;;;;;;;;20.00;19.00;;;;;;;;1555433;28;83608;-88
2021/03/10 09:32:03;;;;;;;;;15.00;15.00;;;;;;;;1559484;28;84713;-88
2021/03/10 09:32:48;;;;;;;;;18.20;18.20;;;;;;;;1553010;28;86226;-88
2021/03/10 09:33:34;;;;;;;;;24.00;24.00;;;;;;;;1553182;28;85828;-87
2021/03/10 09:34:19;;;;;;;;;23.00;20.50;;;;;;;;1548472;28;87345;-88
2021/03/10 09:35:25;;;;;;;;;21.75;21.75;;;;;;;;1548858;28;83760;-88
2021/03/10 09:36:10;;;;;;;;;21.60;19.60;;;;;;;;1540830;28;86361;-88
2021/03/10 09:36:55;;;;;;;;;25.75;24.75;;;;;;;;1554364;28;86696;-88
2021/03/10 09:37:44;;;;;;;;;17.00;17.00;;;;;;;;1548407;28;87120;-88
2021/03/10 09:38:29;;;;;;;;;21.40;21.40;;;;;;;;1549283;28;85733;-88
2021/03/10 09:39:15;;;;;;;;;19.00;19.00;;;;;;;;1549611;28;86397;-88
2021/03/10 09:40:02;;;;;;;;;16.50;16.50;;;;;;;;1554802;28;86128;-88
2021/03/10 09:40:51;;;;;;;;;20.00;20.00;;;;;;;;1552962;28;84740;-88
2021/03/10 09:41:36;;;;;;;;;20.00;17.60;;;;;;;;1549570;28;85352;-88
2021/03/10 09:42:27;;;;;;;;;19.50;19.50;;;;;;;;1542510;28;85307;-88
2021/03/10 09:43:15;;;;;;;;;20.40;20.40;;;;;;;;1537564;28;85108;-88
2021/03/10 09:44:08;;;;;;;;;20.20;20.20;;;;;;;;1549845;28;85715;-88
2021/03/10 09:44:55;;;;;;;;;14.60;14.60;;;;;;;;1550444;28;86063;-89
2021/03/10 09:45:41;;;;;;;;;16.40;16.40;;;;;;;;1545569;28;85590;-88
2021/03/10 09:46:36;;;;;;;;;16.50;12.50;;;;;;;;1542900;28;84930;-88
2021/03/10 09:47:22;;;;;;;;;12.20;12.20;;;;;;;;1543730;28;86644;-88
2021/03/10 09:48:12;;;;;;;;;18.60;18.60;;;;;;;;1550126;28;86567;-88
2021/03/10 09:49:02;;;;;;;;;19.40;18.60;;;;;;;;1546696;28;84071;-88
2021/03/10 09:49:51;;;;;;;;;16.40;16.40;;;;;;;;1549888;28;87259;-88
2021/03/10 09:50:40;;;;;;;;;17.80;16.00;;;;;;;;1546992;28;86990;-87
2021/03/10 09:51:25;;;;;;;;;20.00;19.00;;;;;;;;1543345;28;85505;-88
2021/03/10 09:52:11;;;;;;;;;13.00;13.00;;;;;;;;1542893;28;86971;-87
2021/03/10 09:52:57;;;;;;;;;17.25;17.25;;;;;;;;1542647;28;85590;-88
2021/03/10 09:53:43;;;;;;;;;13.20;13.20;;;;;;;;1542529;28;88125;-87
2021/03/10 09:54:28;;;;;;;;;12.00;12.00;;;;;;;;1542549;28;87162;-87
2021/03/10 09:55:18;;;;;;;;;17.00;17.00;;;;;;;;1548945;28;88009;-89
2021/03/10 09:56:07;;;;;;;;;19.20;19.20;;;;;;;;1541048;28;86092;-89
2021/03/10 09:56:55;;;;;;;;;19.00;17.80;;;;;;;;1543760;28;86621;-88
2021/03/10 09:57:40;;;;;;;;;20.80;20.80;;;;;;;;1543548;28;84540;-89
2021/03/10 09:58:25;;;;;;;;;11.50;11.50;;;;;;;;1542729;28;87761;-88
2021/03/10 09:59:11;;;;;;;;;17.00;17.00;;;;;;;;1540591;28;85786;-89
2021/03/10 09:59:57;;;;;;;;;16.75;16.75;;;;;;;;1548999;28;83282;-90
2021/03/10 10:00:49;;;;;;;;;16.00;16.00;;;;;;;;1546993;28;86232;-90
2021/03/10 10:01:43;;;;;;;;;15.80;15.80;;;;;;;;1556668;28;85331;-90
2021/03/10 10:02:31;;;;;;;;;14.00;14.00;;;;;;;;1556319;28;85775;-90
2021/03/10 10:03:24;;;;;;;;;16.40;16.40;;;;;;;;1549587;28;85491;-89
2021/03/10 10:04:10;;;;;;;;;17.40;17.20;;;;;;;;1550313;28;84171;-91
2021/03/10 10:04:57;;;;;;;;;15.80;14.40;;;;;;;;1546608;28;85981;-91
2021/03/10 10:05:42;;;;;;;;;14.00;14.00;;;;;;;;1542819;28;86453;-90
2021/03/10 10:06:27;;;;;;;;;18.00;18.00;;;;;;;;1543661;28;84604;-90
2021/03/10 10:07:15;;;;;;;;;12.50;12.25;;;;;;;;1548049;28;86316;-89
2021/03/10 10:08:03;;;;;;;;;12.80;12.80;;;;;;;;1541000;28;84897;-90
2021/03/10 10:08:48;;;;;;;;;13.80;12.40;;;;;;;;1540054;28;83943;-89
2021/03/10 10:09:34;;;;;;;;;14.00;13.75;;;;;;;;1548851;28;85488;-89
2021/03/10 10:10:19;;;;;;;;;18.00;18.00;;;;;;;;1546570;28;85968;-89
2021/03/10 10:11:05;;;;;;;;;17.00;17.00;;;;;;;;1546458;28;86183;-90
2021/03/10 10:11:50;;;;;;;;;15.75;15.75;;;;;;;;1542913;28;86122;-89
2021/03/10 10:12:41;;;;;;;;;17.75;16.25;;;;;;;;1543140;28;83489;-91
2021/03/10 10:13:27;;;;;;;;;17.80;17.80;;;;;;;;1541547;28;85239;-92
2021/03/10 10:14:12;;;;;;;;;15.25;15.25;;;;;;;;1544021;28;86486;-90
2021/03/10 10:14:57;;;;;;;;;16.75;16.75;;;;;;;;1541836;28;83802;-93
2021/03/10 10:15:43;;;;;;;;;13.00;13.00;;;;;;;;1543923;28;83828;-91
2021/03/10 10:16:30;;;;;;;;;15.75;15.75;;;;;;;;1541381;28;85702;-91
2021/03/10 10:17:18;;;;;;;;;15.60;15.60;;;;;;;;1544098;28;83803;-92
2021/03/10 10:18:05;;;;;;;;;7.20;7.20;;;;;;;;1554448;28;86441;-91
2021/03/10 10:18:51;;;;;;;;;16.00;16.00;;;;;;;;1550620;28;82955;-93
2021/03/10 10:19:37;;;;;;;;;13.80;13.60;;;;;;;;1545378;28;84708;-91
2021/03/10 10:20:25;;;;;;;;;13.40;13.40;;;;;;;;1544247;28;83592;-90
2021/03/10 10:21:11;;;;;;;;;20.20;20.20;;;;;;;;1556192;28;87783;-91
2021/03/10 10:21:56;;;;;;;;;16.25;16.25;;;;;;;;1557543;28;85196;-93
2021/03/10 10:22:42;;;;;;;;;19.75;18.00;;;;;;;;1546793;28;84964;-93
2021/03/10 10:23:29;;;;;;;;;15.50;15.50;;;;;;;;1539195;28;84944;-92
2021/03/10 10:24:15;;;;;;;;;14.60;14.60;;;;;;;;1546434;28;84896;-94
2021/03/10 10:25:02;;;;;;;;;12.60;12.60;;;;;;;;1543460;28;85594;-90
2021/03/10 10:25:47;;;;;;;;;14.40;14.40;;;;;;;;1538325;28;85310;-92
2021/03/10 10:26:32;;;;;;;;;16.25;16.25;;;;;;;;1536867;28;85137;-92
2021/03/10 10:27:22;;;;;;;;;12.00;12.00;;;;;;;;1543746;28;87124;-91
2021/03/10 10:28:08;;;;;;;;;13.40;13.40;;;;;;;;1542268;28;85408;-89
2021/03/10 10:28:53;;;;;;;;;16.50;16.50;;;;;;;;1549912;28;83426;-91
2021/03/10 10:29:38;;;;;;;;;15.25;15.25;;;;;;;;1547040;28;83557;-92
2021/03/10 10:30:23;;;;;;;;;17.00;17.00;;;;;;;;1547730;28;85159;-91
2021/03/10 10:31:09;;;;;;;;;14.50;14.50;;;;;;;;1547138;28;86098;-90
2021/03/10 10:31:54;;;;;;;;;13.00;11.50;;;;;;;;1541934;28;85033;-88
2021/03/10 10:32:43;;;;;;;;;12.50;12.50;;;;;;;;1542303;28;86658;-88
2021/03/10 10:33:28;;;;;;;;;16.20;16.20;;;;;;;;1536212;28;84710;-90
2021/03/10 10:34:13;;;;;;;;;18.00;18.00;;;;;;;;1539212;28;83971;-89
2021/03/10 10:34:59;;;;;;;;;13.00;13.00;;;;;;;;1536866;28;86782;-89
2021/03/10 10:35:44;;;;;;;;;19.25;18.75;;;;;;;;1546572;28;86386;-90
2021/03/10 10:36:29;;;;;;;;;17.00;17.00;;;;;;;;1553637;28;85912;-90
2021/03/10 10:37:15;;;;;;;;;16.00;16.00;;;;;;;;1553291;28;85974;-90
2021/03/10 10:38:00;;;;;;;;;19.25;19.25;;;;;;;;1544495;28;85049;-89
2021/03/10 10:38:45;;;;;;;;;16.50;16.50;;;;;;;;1544962;28;83596;-89
2021/03/10 10:39:31;;;;;;;;;15.00;15.00;;;;;;;;1544525;28;83894;-90
2021/03/10 10:40:18;;;;;;;;;16.50;16.50;;;;;;;;1556511;28;84744;-90
2021/03/10 10:41:03;;;;;;;;;18.00;18.00;;;;;;;;1557159;28;85537;-90
2021/03/10 10:41:49;;;;;;;;;12.00;12.00;;;;;;;;1552272;28;85764;-89
2021/03/10 10:42:34;;;;;;;;;16.00;16.00;;;;;;;;1550605;28;85069;-88
2021/03/10 10:43:20;;;;;;;;;15.00;15.00;;;;;;;;1551550;28;86695;-90
2021/03/10 10:44:05;;;;;;;;;16.00;16.00;;;;;;;;1548490;28;85824;-89
2021/03/10 10:44:50;;;;;;;;;16.25;16.25;;;;;;;;1544484;28;86464;-90
2021/03/10 10:45:35;;;;;;;;;15.50;15.50;;;;;;;;1544708;28;86819;-89
2021/03/10 10:46:21;;;;;;;;;16.50;16.50;;;;;;;;1550669;28;85156;-88
2021/03/10 10:47:06;;;;;;;;;16.25;16.25;;;;;;;;1543326;28;85583;-90
2021/03/10 10:47:51;;;;;;;;;16.50;16.50;;;;;;;;1544802;28;85415;-89
2021/03/10 10:48:36;;;;;;;;;13.50;13.50;;;;;;;;1543065;28;86975;-93
2021/03/10 10:49:24;;;;;;;;;14.25;14.25;;;;;;;;1541977;28;86754;-91
2021/03/10 10:50:13;;;;;;;;;13.60;13.60;;;;;;;;1541284;28;84581;-88
2021/03/10 10:50:58;;;;;;;;;14.00;13.20;;;;;;;;1541188;28;82993;-89
2021/03/10 10:51:44;;;;;;;;;17.50;17.50;;;;;;;;1547305;28;87241;-90
2021/03/10 10:52:29;;;;;;;;;14.00;14.00;;;;;;;;1543831;28;84072;-87
2021/03/10 10:53:14;;;;;;;;;17.00;17.00;;;;;;;;1541252;28;84032;-86
2021/03/10 10:53:59;;;;;;;;;17.50;17.50;;;;;;;;1542600;28;85973;-86
2021/03/10 10:54:45;;;;;;;;;17.50;17.50;;;;;;;;1542396;28;85433;-87
2021/03/10 10:55:30;;;;;;;;;15.50;15.50;;;;;;;;1536179;28;87570;-88
2021/03/10 10:56:15;;;;;;;;;17.50;17.50;;;;;;;;1538590;28;84305;-88
2021/03/10 10:57:01;;;;;;;;;21.75;19.00;;;;;;;;1537958;28;87254;-88
2021/03/10 10:57:46;;;;;;;;;13.00;13.00;;;;;;;;1538266;28;83186;-87
2021/03/10 10:58:31;;;;;;;;;19.00;19.00;;;;;;;;1538003;28;87259;-87
2021/03/10 10:59:17;;;;;;;;;16.50;14.50;;;;;;;;1543716;28;85557;-87
2021/03/10 11:00:06;;;;;;;;;20.25;19.75;;;;;;;;1542207;28;85203;-86
2021/03/10 11:00:51;;;;;;;;;19.00;19.00;;;;;;;;1538891;28;85799;-88
2021/03/10 11:01:36;;;;;;;;;17.75;17.75;;;;;;;;1536998;28;86461;-87
2021/03/10 11:02:22;;;;;;;;;17.00;17.00;;;;;;;;1542480;28;84391;-87
2021/03/10 11:03:07;;;;;;;;;17.75;17.75;;;;;;;;1541988;28;86823;-87
2021/03/10 11:03:53;;;;;;;;;19.25;17.75;;;;;;;;1536201;28;85174;-88
2021/03/10 11:04:38;;;;;;;;;16.50;15.75;;;;;;;;1531861;28;87333;-88
2021/03/10 11:05:24;;;;;;;;;17.00;17.00;;;;;;;;1540942;28;86015;-88
2021/03/10 11:06:09;;;;;;;;;16.00;16.00;;;;;;;;1536317;28;86186;-88
2021/03/10 11:06:54;;;;;;;;;19.50;19.50;;;;;;;;1544464;28;85617;-88
2021/03/10 11:07:39;;;;;;;;;18.00;17.50;;;;;;;;1544225;28;86076;-86
2021/03/10 11:08:25;;;;;;;;;17.00;16.00;;;;;;;;1540258;28;84648;-87
2021/03/10 11:09:10;;;;;;;;;20.25;20.25;;;;;;;;1537786;28;83597;-88
2021/03/10 11:09:56;;;;;;;;;20.25;20.25;;;;;;;;1536280;28;85104;-87
2021/03/10 11:10:41;;;;;;;;;21.00;21.00;;;;;;;;1544117;28;85689;-88
2021/03/10 11:11:26;;;;;;;;;16.00;15.00;;;;;;;;1546197;28;83702;-88
2021/03/10 11:12:12;;;;;;;;;17.00;17.00;;;;;;;;1541760;28;86525;-88
2021/03/10 11:12:57;;;;;;;;;17.60;17.60;;;;;;;;1550610;28;84105;-88
2021/03/10 11:13:43;;;;;;;;;18.75;18.75;;;;;;;;1550603;28;84789;-88
2021/03/10 11:14:28;;;;;;;;;27.75;24.50;;;;;;;;1545588;28;85859;-88
2021/03/10 11:15:13;;;;;;;;;20.75;20.75;;;;;;;;1541818;28;85943;-88
2021/03/10 11:15:58;;;;;;;;;17.50;17.50;;;;;;;;1542163;28;84711;-88
2021/03/10 11:16:44;;;;;;;;;21.00;20.25;;;;;;;;1541395;28;84435;-88
2021/03/10 11:17:29;;;;;;;;;22.00;20.75;;;;;;;;1540301;28;85661;-88
2021/03/10 11:18:14;;;;;;;;;21.00;21.00;;;;;;;;1532013;28;85023;-88
2021/03/10 11:19:00;;;;;;;;;20.50;20.50;;;;;;;;1538730;28;84597;-87
2021/03/10 11:19:45;;;;;;;;;19.00;19.00;;;;;;;;1542384;28;85074;-86
2021/03/10 11:20:30;;;;;;;;;16.25;16.25;;;;;;;;1543988;28;86331;-86
2021/03/10 11:21:15;;;;;;;;;15.75;15.75;;;;;;;;1544597;28;86308;-87
2021/03/10 11:22:02;;;;;;;;;23.50;22.25;;;;;;;;1555441;28;83457;-87
2021/03/10 11:22:47;;;;;;;;;20.00;20.00;;;;;;;;1559750;28;85894;-87
2021/03/10 11:23:33;;;;;;;;;18.75;18.75;;;;;;;;1554756;28;87470;-86
2021/03/10 11:24:18;;;;;;;;;18.00;18.00;;;;;;;;1552840;28;84847;-86
2021/03/10 11:25:07;;;;;;;;;17.25;17.25;;;;;;;;1547996;28;83823;-86
2021/03/10 11:25:53;;;;;;;;;17.60;17.60;;;;;;;;1543825;28;85285;-86
2021/03/10 11:26:38;;;;;;;;;17.25;17.25;;;;;;;;1535868;28;85003;-87
2021/03/10 11:27:24;;;;;;;;;18.75;18.75;;;;;;;;1537698;28;86636;-87
2021/03/10 11:28:10;;;;;;;;;18.80;18.80;;;;;;;;1535907;28;85110;-87
2021/03/10 11:28:55;;;;;;;;;18.25;18.25;;;;;;;;1544061;28;85293;-89
2021/03/10 11:29:40;;;;;;;;;15.00;15.00;;;;;;;;1548163;28;85876;-88
2021/03/10 11:30:25;;;;;;;;;19.75;19.75;;;;;;;;1546021;28;86322;-88
2021/03/10 11:31:11;;;;;;;;;16.50;16.50;;;;;;;;1548101;28;86213;-87
2021/03/10 11:31:56;;;;;;;;;19.25;19.25;;;;;;;;1543754;28;86015;-88
2021/03/10 11:32:41;;;;;;;;;14.00;14.00;;;;;;;;1539944;28;85728;-88
2021/03/10 11:33:27;;;;;;;;;17.75;17.75;;;;;;;;1543620;28;86561;-88
2021/03/10 11:34:12;;;;;;;;;17.75;17.75;;;;;;;;1543722;28;86618;-87
2021/03/10 11:34:57;;;;;;;;;20.75;20.75;;;;;;;;1540053;28;86310;-87
2021/03/10 11:35:43;;;;;;;;;18.50;18.50;;;;;;;;1536967;28;86946;-87
2021/03/10 11:36:28;;;;;;;;;17.25;17.25;;;;;;;;1538004;28;83520;-88
2021/03/10 11:37:15;;;;;;;;;13.50;13.50;;;;;;;;1538030;28;87104;-88
2021/03/10 11:38:00;;;;;;;;;15.80;14.40;;;;;;;;1537554;28;85056;-88
2021/03/10 11:38:45;;;;;;;;;14.75;14.75;;;;;;;;1550074;28;86240;-88
2021/03/10 11:39:31;;;;;;;;;15.75;15.75;;;;;;;;1551587;28;83957;-87
2021/03/10 11:40:17;;;;;;;;;15.60;14.60;;;;;;;;1552604;28;83662;-87
2021/03/10 11:41:02;;;;;;;;;12.25;12.25;;;;;;;;1543701;28;85130;-86
2021/03/10 11:41:48;;;;;;;;;16.25;14.50;;;;;;;;1537834;28;85303;-89
2021/03/10 11:42:33;;;;;;;;;17.25;17.25;;;;;;;;1537895;28;84904;-89
2021/03/10 11:43:19;;;;;;;;;14.00;14.00;;;;;;;;1542015;28;85426;-89
2021/03/10 11:44:05;;;;;;;;;12.75;12.75;;;;;;;;1548112;28;84745;-89
2021/03/10 11:44:50;;;;;;;;;18.60;18.60;;;;;;;;1543823;28;84924;-87
2021/03/10 11:45:35;;;;;;;;;12.00;12.00;;;;;;;;1542491;28;84562;-88
2021/03/10 11:46:20;;;;;;;;;14.00;14.00;;;;;;;;1544706;28;85128;-88
2021/03/10 11:47:06;;;;;;;;;12.25;12.25;;;;;;;;1543550;28;87292;-87
2021/03/10 11:47:51;;;;;;;;;16.25;15.25;;;;;;;;1547790;28;86678;-88
2021/03/10 11:48:36;;;;;;;;;12.33;12.00;;;;;;;;1546997;28;86316;-88
2021/03/10 11:49:22;;;;;;;;;12.00;12.00;;;;;;;;1541605;28;86641;-88
2021/03/10 11:50:08;;;;;;;;;13.00;13.00;;;;;;;;1537897;28;86062;-87
2021/03/10 11:50:53;;;;;;;;;11.00;11.00;;;;;;;;1537999;28;85792;-87
2021/03/10 11:51:38;;;;;;;;;10.00;10.00;;;;;;;;1537350;28;85986;-86
2021/03/10 11:52:23;;;;;;;;;9.75;9.75;;;;;;;;1537569;28;87331;-86
2021/03/10 11:53:09;;;;;;;;;11.75;11.75;;;;;;;;1543929;28;84177;-86
2021/03/10 11:53:54;;;;;;;;;10.33;10.33;;;;;;;;1555800;28;84603;-87
2021/03/10 11:54:40;;;;;;;;;7.00;7.00;;;;;;;;1554202;28;84059;-88
2021/03/10 11:55:25;;;;;;;;;10.67;10.67;;;;;;;;1545986;28;86801;-89
2021/03/10 11:56:10;;;;;;;;;8.33;8.33;;;;;;;;1531728;28;84016;-88
2021/03/10 11:56:55;;;;;;;;;8.67;8.67;;;;;;;;1535801;28;84156;-88
2021/03/10 11:57:41;;;;;;;;;8.00;8.00;;;;;;;;1537847;28;85165;-87
2021/03/10 11:58:27;;;;;;;;;5.00;5.00;;;;;;;;1537563;28;85713;-87
2021/03/10 11:59:12;;;;;;;;;9.50;9.50;;;;;;;;1543896;28;85122;-87
2021/03/10 11:59:57;;;;;;;;;8.00;8.00;;;;;;;;1541951;28;86767;-87
2021/03/10 12:00:42;;;;;;;;;10.00;10.00;;;;;;;;1537607;28;87217;-87
2021/03/10 12:01:27;;;;;;;;;7.00;7.00;;;;;;;;1537346;28;86735;-85
2021/03/10 12:02:13;;;;;;;;;10.00;10.00;;;;;;;;1537756;28;87058;-88
2021/03/10 12:02:58;;;;;;;;;9.00;9.00;;;;;;;;1537714;28;85824;-87
2021/03/10 12:03:45;;;;;;;;;8.00;8.00;;;;;;;;1542032;28;86351;-88
2021/03/10 12:04:30;;;;;;;;;8.00;8.00;;;;;;;;1537985;28;85469;-87
2021/03/10 12:05:16;;;;;;;;;10.00;10.00;;;;;;;;1537856;28;84140;-87
2021/03/10 12:06:01;;;;;;;;;8.00;8.00;;;;;;;;1537699;28;85351;-88
2021/03/10 12:06:46;;;;;;;;;10.00;10.00;;;;;;;;1537713;28;86583;-87
2021/03/10 12:07:32;;;;;;;;;8.33;8.33;;;;;;;;1537613;28;85014;-87
2021/03/10 12:08:17;;;;;;;;;6.00;6.00;;;;;;;;1537856;28;86783;-88
2021/03/10 12:09:03;;;;;;;;;10.00;8.67;;;;;;;;1537694;28;88070;-88
2021/03/10 12:09:48;;;;;;;;;;;;;;;;;;1543065;28;85461;-87
2021/03/10 12:10:40;;;;;;;;;;;;;;;;;;1540307;28;83392;-88
2021/03/10 12:11:25;;;;;;;;;;;;;;;;;;1541019;28;83424;-88
2021/03/10 12:12:10;;;;;;;;;;;;;;;;;;1541277;28;83019;-87
2021/03/10 12:12:55;;;;;;;;;;;;;;;;;;1537036;28;84717;-87
2021/03/10 12:13:40;;;;;;;;;;;;;;;;;;1550618;28;83592;-87
2021/03/10 12:14:25;;;;;;;;;;;;;;;;;;1552401;28;83714;-88
2021/03/10 12:15:10;;;;;;;;;;;;;;;;;;1554864;28;83785;-87
2021/03/10 12:15:55;;;;;;;;;;;;;;;;;;1554797;28;84763;-88
2021/03/10 12:16:40;;;;;;;;;;;;;;;;;;1556401;28;84868;-88
2021/03/10 12:17:26;;;;;;;;;;;;;;;;;;1554521;28;84700;-88
2021/03/10 12:18:11;;;;;;;;;;;;;;;;;;1556689;28;83520;-87
2021/03/10 12:18:56;;;;;;;;;;;;;;;;;;1552718;28;84644;-88
2021/03/10 12:19:42;;;;;;;;;;;;;;;;;;1554799;28;83441;-87
2021/03/10 12:20:28;;;;;;;;;;;;;;;;;;1556826;28;85044;-87
2021/03/10 12:21:13;;;;;;;;;;;;;;;;;;1556783;28;83391;-88
2021/03/10 12:21:58;;;;;;;;;;;;;;;;;;1555101;28;83477;-88
2021/03/10 12:22:43;;;;;;;;;;;;;;;;;;1556749;28;83295;-86
2021/03/10 12:23:28;;;;;;;;;;;;;;;;;;1556930;28;85666;-87
2021/03/10 12:24:13;;;;;;;;;;;;;;;;;;1554995;28;82759;-87
2021/03/10 12:24:58;;;;;;;;;;;;;;;;;;1556849;28;83109;-88
2021/03/10 12:25:43;;;;;;;;;;;;;;;;;;1551114;28;83573;-87
2021/03/10 12:26:29;;;;;;;;;;;;;;;;;;1548552;28;83209;-89
2021/03/10 12:27:23;;;;;;;;;;;;;;;;;;1550460;28;83053;-87
2021/03/10 12:28:08;;;;;;;;;;;;;;;;;;1550704;28;83375;-88
2021/03/10 12:28:53;;;;;;;;;;;;;;;;;;1541388;28;83539;-87
2021/03/10 12:29:38;;;;;;;;;;;;;;;;;;1534066;28;84505;-87
2021/03/10 12:30:23;;;;;;;;;;;;;;;;;;1539891;28;83334;-87
2021/03/10 12:31:08;;;;;;;;;;;;;;;;;;1538305;28;83880;-86
2021/03/10 12:31:54;;;;;;;;;;;;;;;;;;1551835;28;83477;-86
2021/03/10 12:32:39;;;;;;;;;;;;;;;;;;1550435;28;84626;-86
2021/03/10 12:33:24;;;;;;;;;;;;;;;;;;1548371;28;86399;-88
2021/03/10 12:34:09;;;;;;;;;;;;;;;;;;1544561;28;85873;-87
2021/03/10 12:34:55;;;;;;;;;;;;;;;;;;1540045;28;83904;-88
2021/03/10 12:35:40;;;;;;;;;;;;;;;;;;1549922;28;84366;-87
2021/03/10 12:36:25;;;;;;;;;;;;;;;;;;1546224;28;84465;-87
2021/03/10 12:37:10;;;;;;;;;;;;;;;;;;1542645;28;83761;-87
2021/03/10 12:37:55;;;;;;;;;;;;;;;;;;1546091;28;85954;-87
2021/03/10 12:38:40;;;;;;;;;;;;;;;;;;1546343;28;84642;-86
2021/03/10 12:39:25;;;;;;;;;;;;;;;;;;1548496;28;86383;-87
2021/03/10 12:40:12;;;;;;;;;;;;;;;;;;1546299;28;83940;-87
2021/03/10 12:40:57;;;;;;;;;;;;;;;;;;1547185;28;83776;-86
2021/03/10 12:41:42;;;;;;;;;;;;;;;;;;1550546;28;83597;-87
2021/03/10 12:42:27;;;;;;;;;;;;;;;;;;1550419;28;83646;-87
2021/03/10 12:43:12;;;;;;;;;;;;;;;;;;1546367;28;84846;-87
2021/03/10 12:43:57;;;;;;;;;;;;;;;;;;1542231;28;84499;-86
2021/03/10 12:44:42;;;;;;;;;;;;;;;;;;1552176;28;85090;-87
2021/03/10 12:45:28;;;;;;;;;;;;;;;;;;1552380;28;86011;-87
2021/03/10 12:46:13;;;;;;;;;;;;;;;;;;1548562;28;84941;-87
2021/03/10 12:46:58;;;;;;;;;;;;;;;;;;1552482;28;84524;-86
2021/03/10 12:47:43;;;;;;;;;;;;;;;;;;1556771;28;84518;-86
2021/03/10 12:48:28;;;;;;;;;;;;;;;;;;1554662;28;84529;-87
2021/03/10 12:49:13;;;;;;;;;;;;;;;;;;1551670;28;83501;-87
2021/03/10 12:49:59;;;;;;;;;;;;;;;;;;1549180;28;85120;-86
2021/03/10 12:50:44;;;;;;;;;;;;;;;;;;1548657;28;84464;-87
2021/03/10 12:51:29;;;;;;;;;;;;;;;;;;1552535;28;86657;-87
2021/03/10 12:52:14;;;;;;;;;;;;;;;;;;1552149;28;84410;-86
2021/03/10 12:52:59;;;;;;;;;;;;;;;;;;1551404;28;85254;-87
2021/03/10 12:53:45;;;;;;;;;;;;;;;;;;1552371;28;84979;-86
2021/03/10 12:54:30;;;;;;;;;;;;;;;;;;1552432;28;86901;-87
2021/03/10 12:55:15;;;;;;;;;;;;;;;;;;1554734;28;84115;-87
2021/03/10 12:56:00;;;;;;;;;;;;;;;;;;1556823;28;85835;-87
2021/03/10 12:56:46;;;;;;;;;;;;;;;;;;1556595;28;85219;-86
2021/03/10 12:57:31;;;;;;;;;;;;;;;;;;1554668;28;85755;-86
2021/03/10 12:58:16;;;;;;;;;;;;;;;;;;1556759;28;85380;-87
2021/03/10 12:59:01;;;;;;;;;;;;;;;;;;1556283;28;84792;-86
2021/03/10 12:59:46;;;;;;;;;;;;;;;;;;1554274;28;85628;-85
2021/03/10 13:00:31;;;;;;;;;;;;;;;;;;1546106;28;85371;-86
2021/03/10 13:01:16;;;;;;;;;;;;;;;;;;1542459;28;84968;-86
2021/03/10 13:02:01;;;;;;;;;;;;;;;;;;1546856;28;85076;-87
2021/03/10 13:02:48;;;;;;;;;;;;;;;;;;1558822;28;85203;-86
2021/03/10 13:03:33;;;;;;;;;;;;;;;;;;1553726;28;84478;-85
2021/03/10 13:04:18;;;;;;;;;;;;;;;;;;1550371;28;85567;-86
2021/03/10 13:05:04;;;;;;;;;;;;;;;;;;1550543;28;85163;-86
2021/03/10 13:05:49;;;;;;;;;;;;;;;;;;1548771;28;84360;-86
2021/03/10 13:06:34;;;;;;;;;;;;;;;;;;1540702;28;85546;-86
2021/03/10 13:07:19;;;;;;;;;;;;;;;;;;1551014;28;83896;-86
2021/03/10 13:08:04;;;;;;;;;;;;;;;;;;1546656;28;85405;-86
2021/03/10 13:08:49;;;;;;;;;;;;;;;;;;1542180;28;85024;-86
2021/03/10 13:09:34;;;;;;;;;;;;;;;;;;1546476;28;85317;-86
2021/03/10 13:10:20;;;;;;;;;;;;;;;;;;1546650;28;84896;-86
2021/03/10 13:11:05;;;;;;;;;;;;;;;;;;1543300;28;84081;-85
2021/03/10 13:11:50;;;;;;;;;;;;;;;;;;1546897;28;84038;-85
2021/03/10 13:12:36;;;;;;;;;;;;;;;;;;1546879;28;84880;-86
2021/03/10 13:13:21;;;;;;;;;;;;;;;;;;1542643;28;85267;-86
2021/03/10 13:14:06;;;;;;;;;;;;;;;;;;1546440;28;86918;-85
2021/03/10 13:14:51;;;;;;;;;;;;;;;;;;1549035;28;83459;-85
2021/03/10 13:15:36;;;;;;;;;;;;;;;;;;1542298;28;83650;-86
2021/03/10 13:16:23;;;;;;;;;;;;;;;;;;1546620;28;85589;-86
2021/03/10 13:17:08;;;;;;;;;;;;;;;;;;1546998;28;83760;-86
2021/03/10 13:17:53;;;;;;;;;;;;;;;;;;1542391;28;83496;-86
2021/03/10 13:18:38;;;;;;;;;;;;;;;;;;1542862;28;83186;-85
2021/03/10 13:19:23;;;;;;;;;;;;;;;;;;1546446;28;83593;-85
2021/03/10 13:20:10;;;;;;;;;;;;;;;;;;1553138;28;82746;-86
2021/03/10 13:20:55;;;;;;;;;;;;;;;;;;1553900;28;83152;-85
2021/03/10 13:21:40;;;;;;;;;;;;;;;;;;1559062;28;83063;-86
2021/03/10 13:22:25;;;;;;;;;;;;;;;;;;1559007;28;83808;-85
2021/03/10 13:23:10;;;;;;;;;;;;;;;;;;1554027;28;83980;-86
2021/03/10 13:23:55;;;;;;;;;;;;;;;;;;1549394;28;82527;-87
2021/03/10 13:24:40;;;;;;;;;;;;;;;;;;1556435;28;83957;-83
2021/03/10 13:25:25;;;;;;;;;;;;;;;;;;1561145;28;83359;-82
2021/03/10 13:26:11;;;;;;;;;;;;;;;;;;1555263;28;83270;-84
2021/03/10 13:26:56;;;;;;;;;;;;;;;;;;1548907;28;84475;-83
2021/03/10 13:27:43;;;;;;;;;;;;;;;;;;1548153;28;83848;-83
2021/03/10 13:28:28;;;;;;;;;;;;;;;;;;1543991;28;84980;-83
2021/03/10 13:29:13;;;;;;;;;;;;;;;;;;1550190;28;83480;-83
2021/03/10 13:29:58;;;;;;;;;;;;;;;;;;1546021;28;83830;-82
2021/03/10 13:30:43;;;;;;;;;;;;;;;;;;1548206;28;84616;-83
2021/03/10 13:31:28;;;;;;;;;;;;;;;;;;1550648;28;86124;-83
2021/03/10 13:32:14;;;;;;;;;;;;;;;;;;1550174;28;84817;-83
2021/03/10 13:32:59;;;;;;;;;;;;;;;;;;1548294;28;84808;-82
2021/03/10 13:33:44;;;;;;;;;;;;;;;;;;1553870;28;84140;-83
2021/03/10 13:34:29;;;;;;;;;;;;;;;;;;1555120;28;85018;-83
2021/03/10 13:35:14;;;;;;;;;;;;;;;;;;1554198;28;85235;-83
2021/03/10 13:35:59;;;;;;;;;;;;;;;;;;1546840;28;84081;-83
2021/03/10 13:36:44;;;;;;;;;;;;;;;;;;1546004;28;85480;-83
2021/03/10 13:37:29;;;;;;;;;;;;;;;;;;1549884;28;84085;-82
2021/03/10 13:38:14;;;;;;;;;;;;;;;;;;1543970;28;86728;-82
2021/03/10 13:39:00;;;;;;;;;;;;;;;;;;1545739;28;83595;-82
2021/03/10 13:39:45;;;;;;;;;;;;;;;;;;1550049;28;85506;-82
2021/03/10 13:40:30;;;;;;;;;;;;;;;;;;1543939;28;86124;-82
2021/03/10 13:41:15;;;;;;;;;;;;;;;;;;1544093;28;85001;-82
2021/03/10 13:42:00;;;;;;;;;;;;;;;;;;1546311;28;84542;-83
2021/03/10 13:42:45;;;;;;;;;;;;;;;;;;1550051;28;83925;-82
2021/03/10 13:43:30;;;;;;;;;;;;;;;;;;1550567;28;83754;-82
2021/03/10 13:44:15;;;;;;;;;;;;;;;;;;1550254;28;86260;-83
2021/03/10 13:45:00;;;;;;;;;;;;;;;;;;1550189;28;83484;-82
2021/03/10 13:45:46;;;;;;;;;;;;;;;;;;1549971;28;86354;-90
2021/03/10 13:46:31;;;;;;;;;;;;;;;;;;1556278;28;84873;-90
2021/03/10 13:47:16;;;;;;;;;;;;;;;;;;1556129;28;84728;-91
2021/03/10 13:48:01;;;;;;;;;;;;;;;;;;1548609;28;83497;-90
2021/03/10 13:48:47;;;;;;;;;;;;;;;;;;1545838;28;85230;-90
2021/03/10 13:49:32;;;;;;;;;;;;;;;;;;1546650;28;84924;-91
2021/03/10 13:50:17;;;;;;;;;;;;;;;;;;1542060;28;83696;-90
2021/03/10 13:51:02;;;;;;;;;;;;;;;;;;1547205;28;85422;-91
2021/03/10 13:51:47;;;;;;;;;;;;;;;;;;1552480;28;84451;-92
2021/03/10 13:52:32;;;;;;;;;;;;;;;;;;1554700;28;83907;-91
2021/03/10 13:53:18;;;;;;;;;;;;;;;;;;1550423;28;84119;-92
2021/03/10 13:54:04;;;;;;;;;;;;;;;;;;1550712;28;84020;-91
2021/03/10 13:54:53;;;;;;;;;;;;;;;;;;1550943;28;86117;-92
2021/03/10 13:55:38;;;;;;;;;;;;;;;;;;1550920;28;83495;-92
2021/03/10 13:56:24;;;;;;;;;;;;;;;;;;1550084;28;83810;-92
2021/03/10 13:57:10;;;;;;;;;;;;;;;;;;1546895;28;84696;-92
2021/03/10 13:57:55;;;;;;;;;;;;;;;;;;1540553;28;85286;-90